Time;durP1;ratioP1;P1;durP2;ratioP2;P2;SDS_P1;SDS_P2;PMS_P1;PMS_P2;Temp;Humidity;BMP_temperature;BMP_pressure;BME280_temperature;BME280_humidity;BME280_pressure;Samples;Min_cycle;Max_cycle;Signal;HPM_P1;HPM_P2
2023/07/31 00:02:38;;;;;;;3.10;1.90;;;;;;;18.73;73.65;99547.31;131325;1248;107511;-79
2023/07/31 00:05:43;;;;;;;2.30;1.80;;;;;;;18.72;73.62;99548.52;131345;1248;106675;-79
2023/07/31 00:08:49;;;;;;;2.30;1.80;;;;;;;18.73;73.74;99552.88;131274;1253;107424;-80
2023/07/31 00:11:54;;;;;;;2.60;1.90;;;;;;;18.74;73.77;99552.25;131412;1253;108055;-80
2023/07/31 00:15:00;;;;;;;1.80;1.60;;;;;;;18.73;73.89;99551.26;131389;1261;107513;-79
2023/07/31 00:18:05;;;;;;;1.70;1.60;;;;;;;18.73;74.00;99559.80;131286;1254;107564;-79
2023/07/31 00:21:11;;;;;;;2.00;1.70;;;;;;;18.75;74.11;99556.89;131313;1248;107505;-79
2023/07/31 00:24:16;;;;;;;1.70;1.60;;;;;;;18.80;74.09;99555.20;131336;1254;107505;-80
2023/07/31 00:27:21;;;;;;;2.80;1.70;;;;;;;18.83;74.14;99557.21;131313;1252;107091;-79
2023/07/31 00:30:27;;;;;;;2.10;1.80;;;;;;;18.84;74.18;99560.70;131169;1250;107477;-79
2023/07/31 00:33:35;;;;;;;1.70;1.60;;;;;;;18.84;74.19;99555.39;131231;1253;107417;-79
2023/07/31 00:36:42;;;;;;;3.40;1.70;;;;;;;18.82;74.37;99557.44;131184;1251;107325;-80
2023/07/31 00:39:48;;;;;;;2.00;1.50;;;;;;;18.79;74.37;99556.33;131206;1251;105691;-81
2023/07/31 00:42:53;;;;;;;2.00;1.70;;;;;;;18.78;74.57;99555.74;131340;1253;107684;-80
2023/07/31 00:45:59;;;;;;;2.90;2.10;;;;;;;18.79;74.65;99553.71;131232;1253;107467;-80
2023/07/31 00:49:05;;;;;;;2.20;1.80;;;;;;;18.82;74.77;99555.11;131294;1254;107555;-80
2023/07/31 00:52:11;;;;;;;2.30;1.80;;;;;;;18.83;75.02;99563.96;131308;1248;107226;-80
2023/07/31 00:55:17;;;;;;;2.20;2.00;;;;;;;18.83;75.08;99565.48;131204;1256;107525;-80
2023/07/31 00:58:24;;;;;;;2.30;2.10;;;;;;;18.81;75.02;99571.75;131306;1253;107547;-79
2023/07/31 01:01:31;;;;;;;4.10;2.30;;;;;;;18.80;75.08;99579.41;131166;1248;107346;-79
2023/07/31 01:04:37;;;;;;;4.00;2.00;;;;;;;18.77;75.17;99578.08;131290;1253;106541;-79
2023/07/31 01:07:51;;;;;;;2.70;1.80;;;;;;;18.72;75.32;99579.75;131288;1253;107448;-79
2023/07/31 01:11:01;;;;;;;3.00;2.10;;;;;;;18.64;75.76;99581.20;131206;1248;107437;-79
2023/07/31 01:14:07;;;;;;;3.80;2.30;;;;;;;18.60;76.30;99589.13;131169;1254;107479;-79
2023/07/31 01:17:12;;;;;;;4.30;2.20;;;;;;;18.54;77.05;99592.14;131365;1251;107477;-79
2023/07/31 01:20:22;;;;;;;2.50;2.30;;;;;;;18.44;77.45;99582.83;131229;1248;107539;-79
2023/07/31 01:23:52;;;;;;;2.80;2.20;;;;;;;18.42;77.02;99580.19;131217;1251;108205;-79
2023/07/31 01:27:05;;;;;;;2.80;2.30;;;;;;;18.41;77.78;99583.55;131582;1252;108644;-80
2023/07/31 01:30:17;;;;;;;3.20;2.20;;;;;;;18.40;77.79;99580.83;131244;1248;107207;-79
2023/07/31 01:33:21;;;;;;;;;;;;;;;18.43;77.95;99582.60;131222;1253;108691;-79
2023/07/31 01:36:27;;;;;;;2.60;2.30;;;;;;;18.46;77.85;99594.98;131048;1251;107566;-79
2023/07/31 01:39:33;;;;;;;3.70;3.00;;;;;;;18.48;77.83;99599.27;131239;1248;107518;-80
2023/07/31 01:42:38;;;;;;;2.60;2.40;;;;;;;18.44;78.71;99603.16;131296;1250;107519;-80
2023/07/31 01:45:44;;;;;;;2.70;2.20;;;;;;;18.38;79.23;99608.77;131368;1250;107384;-80
2023/07/31 01:48:49;;;;;;;2.80;2.40;;;;;;;18.31;79.60;99606.70;131256;1253;107505;-80
2023/07/31 01:51:55;;;;;;;3.30;2.50;;;;;;;18.28;78.81;99605.95;131247;1253;107527;-81
2023/07/31 01:55:01;;;;;;;4.00;2.70;;;;;;;18.28;78.99;99607.20;131212;1253;107436;-80
2023/07/31 01:58:07;;;;;;;4.50;2.80;;;;;;;18.24;79.21;99605.80;131317;1254;107620;-80
2023/07/31 02:01:13;;;;;;;3.20;2.80;;;;;;;18.18;80.69;99606.01;131284;1253;107525;-80
2023/07/31 02:04:18;;;;;;;3.20;2.90;;;;;;;18.09;80.35;99602.09;131244;1253;107633;-80
2023/07/31 02:07:24;;;;;;;3.80;2.70;;;;;;;18.06;79.62;99597.09;131204;1263;105779;-80
2023/07/31 02:10:29;;;;;;;3.60;2.80;;;;;;;18.04;79.91;99594.60;131299;1254;107535;-80
2023/07/31 02:13:35;;;;;;;3.80;2.20;;;;;;;18.02;79.85;99597.25;131298;1253;107505;-80
2023/07/31 02:16:42;;;;;;;4.40;2.90;;;;;;;17.97;80.13;99601.68;131248;1248;107404;-81
2023/07/31 02:19:48;;;;;;;4.10;2.70;;;;;;;17.90;79.57;99602.67;131324;1253;107272;-80
2023/07/31 02:22:54;;;;;;;4.10;2.50;;;;;;;17.88;79.74;99600.89;131272;1248;107491;-81
2023/07/31 02:25:59;;;;;;;3.00;2.70;;;;;;;17.88;79.78;99600.20;131336;1253;107237;-81
2023/07/31 02:29:05;;;;;;;3.50;2.60;;;;;;;17.88;79.62;99600.83;131362;1253;108413;-79
2023/07/31 02:32:10;;;;;;;3.10;2.80;;;;;;;17.88;79.78;99607.20;131472;1253;107186;-80
2023/07/31 02:35:16;;;;;;;4.50;3.10;;;;;;;17.86;79.79;99607.84;131457;1261;107526;-82
2023/07/31 02:38:21;;;;;;;3.40;2.70;;;;;;;17.82;80.13;99611.85;131417;1254;106048;-79
2023/07/31 02:41:27;;;;;;;3.40;2.70;;;;;;;17.75;80.63;99616.80;131249;1254;106556;-80
2023/07/31 02:44:33;;;;;;;4.50;2.40;;;;;;;17.71;80.46;99621.27;131401;1254;106432;-78
2023/07/31 02:47:38;;;;;;;3.30;2.30;;;;;;;17.75;80.10;99621.13;131438;1254;106713;-78
2023/07/31 02:50:44;;;;;;;4.50;2.70;;;;;;;17.78;79.99;99619.99;131263;1254;107533;-78
2023/07/31 02:53:49;;;;;;;3.90;2.40;;;;;;;17.77;79.78;99623.96;131258;1253;107516;-78
2023/07/31 02:56:55;;;;;;;4.30;2.40;;;;;;;17.78;80.06;99624.46;131286;1248;107569;-78
2023/07/31 03:00:01;;;;;;;3.00;2.20;;;;;;;17.76;79.67;99624.35;131183;1254;106383;-78
2023/07/31 03:03:06;;;;;;;3.10;2.50;;;;;;;17.82;79.83;99623.00;131275;1254;106460;-78
2023/07/31 03:06:12;;;;;;;4.80;2.40;;;;;;;17.88;79.62;99630.79;131192;1254;107209;-78
2023/07/31 03:09:17;;;;;;;3.80;2.60;;;;;;;17.96;79.53;99633.23;131260;1254;107507;-78
2023/07/31 03:12:24;;;;;;;3.50;2.70;;;;;;;17.98;79.28;99634.10;131097;1254;107510;-78
2023/07/31 03:15:29;;;;;;;4.70;2.80;;;;;;;17.92;79.37;99636.47;131242;1252;107502;-78
2023/07/31 03:18:35;;;;;;;4.60;2.40;;;;;;;17.89;79.25;99640.33;131298;1261;107496;-78
2023/07/31 03:21:41;;;;;;;3.00;2.40;;;;;;;17.86;79.31;99639.64;131273;1262;107339;-79
2023/07/31 03:24:46;;;;;;;3.40;2.50;;;;;;;17.87;79.27;99640.69;131443;1253;107543;-78
2023/07/31 03:27:52;;;;;;;3.30;2.30;;;;;;;17.91;79.06;99638.83;131363;1248;107460;-78
2023/07/31 03:30:58;;;;;;;2.60;2.40;;;;;;;17.99;78.87;99640.61;131177;1257;107583;-78
2023/07/31 03:34:03;;;;;;;2.40;2.20;;;;;;;18.01;78.77;99638.54;131276;1254;107424;-78
2023/07/31 03:37:09;;;;;;;2.90;2.30;;;;;;;18.05;78.73;99645.86;131276;1254;107518;-78
2023/07/31 03:40:15;;;;;;;2.50;2.00;;;;;;;18.05;78.62;99650.17;131307;1253;107482;-78
2023/07/31 03:43:21;;;;;;;2.10;1.70;;;;;;;18.08;78.60;99655.02;131143;1248;107594;-79
2023/07/31 03:46:27;;;;;;;3.90;2.30;;;;;;;18.12;78.56;99658.14;131272;1253;106763;-78
2023/07/31 03:49:33;;;;;;;3.20;2.50;;;;;;;18.19;78.69;99661.27;131363;1253;107407;-79
2023/07/31 03:52:39;;;;;;;3.10;2.50;;;;;;;18.23;78.50;99658.29;131257;1252;106088;-79
2023/07/31 03:55:45;;;;;;;2.40;2.20;;;;;;;18.27;78.52;99659.51;131213;1255;107523;-78
2023/07/31 03:58:51;;;;;;;3.10;2.40;;;;;;;18.28;78.23;99663.06;131275;1261;107159;-78
2023/07/31 04:01:56;;;;;;;2.80;2.20;;;;;;;18.22;78.24;99665.39;131233;1261;107488;-79
2023/07/31 04:05:02;;;;;;;3.70;2.40;;;;;;;18.17;78.38;99671.49;131269;1254;106589;-78
2023/07/31 04:08:07;;;;;;;2.70;2.10;;;;;;;18.14;78.36;99675.26;131201;1254;106843;-78
2023/07/31 04:11:13;;;;;;;3.40;2.30;;;;;;;18.12;78.48;99680.33;131306;1257;107514;-78
2023/07/31 04:14:19;;;;;;;6.80;2.30;;;;;;;18.16;78.45;99683.88;131253;1257;107494;-79
2023/07/31 04:17:24;;;;;;;2.90;2.20;;;;;;;18.16;78.32;99682.67;131233;1254;107485;-78
2023/07/31 04:20:30;;;;;;;3.90;2.30;;;;;;;18.17;78.39;99679.39;131333;1248;107193;-78
2023/07/31 04:23:35;;;;;;;3.60;2.30;;;;;;;18.23;78.19;99681.85;131239;1263;107505;-79
2023/07/31 04:26:41;;;;;;;4.10;2.50;;;;;;;18.26;78.01;99682.45;131313;1263;109319;-78
2023/07/31 04:29:47;;;;;;;3.40;2.30;;;;;;;18.27;77.89;99684.19;131272;1253;107990;-76
2023/07/31 04:32:53;;;;;;;2.30;1.90;;;;;;;18.21;77.53;99683.47;131245;1257;106478;-77
2023/07/31 04:35:58;;;;;;;2.90;2.00;;;;;;;18.24;77.60;99685.98;131238;1254;107521;-76
2023/07/31 04:39:04;;;;;;;3.10;2.10;;;;;;;18.34;77.19;99690.50;131255;1253;108623;-76
2023/07/31 04:42:09;;;;;;;4.00;2.10;;;;;;;18.35;76.89;99691.61;131282;1254;107508;-77
2023/07/31 04:45:15;;;;;;;3.00;2.10;;;;;;;18.43;76.94;99696.85;131355;1248;107472;-77
2023/07/31 04:48:21;;;;;;;2.60;1.90;;;;;;;18.49;76.28;99697.42;131347;1261;107245;-76
2023/07/31 04:51:26;;;;;;;2.60;2.00;;;;;;;18.48;76.65;99697.81;131363;1254;107502;-77
2023/07/31 04:54:32;;;;;;;2.40;1.90;;;;;;;18.52;76.76;99700.82;131312;1248;107330;-76
2023/07/31 04:57:37;;;;;;;4.50;2.00;;;;;;;18.53;76.37;99701.75;131274;1254;107511;-77
2023/07/31 05:00:43;;;;;;;2.40;2.00;;;;;;;18.41;76.31;99696.77;131222;1254;107429;-77
2023/07/31 05:03:48;;;;;;;2.70;2.10;;;;;;;18.38;76.70;99698.78;131349;1248;107114;-77
2023/07/31 05:06:54;;;;;;;3.70;2.20;;;;;;;18.41;76.58;99697.85;131274;1254;107400;-77
2023/07/31 05:09:59;;;;;;;2.90;2.00;;;;;;;18.43;76.64;99695.30;131263;1254;107530;-76
2023/07/31 05:13:05;;;;;;;2.60;1.90;;;;;;;18.43;76.57;99694.42;131309;1254;107502;-77
2023/07/31 05:16:11;;;;;;;3.20;2.10;;;;;;;18.43;76.27;99697.71;131261;1248;107382;-77
2023/07/31 05:19:16;;;;;;;3.10;2.10;;;;;;;18.42;76.22;99701.63;131260;1253;107468;-77
2023/07/31 05:22:22;;;;;;;2.70;1.80;;;;;;;18.44;76.32;99706.02;131253;1253;107484;-77
2023/07/31 05:25:27;;;;;;;2.20;1.70;;;;;;;18.53;76.21;99709.45;131390;1261;107503;-76
2023/07/31 05:28:34;;;;;;;2.40;1.90;;;;;;;18.64;76.04;99705.20;131274;1254;107446;-76
2023/07/31 05:31:40;;;;;;;5.10;1.90;;;;;;;18.71;75.63;99704.05;131327;1263;107442;-77
2023/07/31 05:34:45;;;;;;;2.60;2.00;;;;;;;18.75;75.90;99708.95;131302;1253;107437;-78
2023/07/31 05:37:51;;;;;;;3.00;2.10;;;;;;;18.80;75.09;99712.60;131337;1254;107538;-77
2023/07/31 05:40:56;;;;;;;3.40;2.20;;;;;;;18.81;75.26;99709.97;131326;1248;107504;-77
2023/07/31 05:44:02;;;;;;;2.40;2.20;;;;;;;18.85;75.20;99710.32;131276;1257;107507;-77
2023/07/31 05:47:08;;;;;;;3.20;2.20;;;;;;;18.93;75.14;99709.01;131325;1248;107518;-77
2023/07/31 05:50:14;;;;;;;4.80;2.50;;;;;;;19.07;74.66;99707.13;131303;1254;107591;-78
2023/07/31 05:53:19;;;;;;;3.80;2.40;;;;;;;19.17;74.72;99711.70;131437;1254;107498;-77
2023/07/31 05:56:27;;;;;;;4.00;2.00;;;;;;;19.25;74.71;99710.66;131529;1253;108649;-77
2023/07/31 05:59:33;;;;;;;3.30;2.10;;;;;;;19.38;74.54;99712.77;131364;1253;107493;-76
2023/07/31 06:02:38;;;;;;;2.70;1.90;;;;;;;19.56;74.52;99716.41;131299;1248;107198;-76
2023/07/31 06:05:44;;;;;;;2.50;2.20;;;;;;;19.68;73.42;99716.70;131304;1253;107191;-78
2023/07/31 06:08:50;;;;;;;3.60;2.00;;;;;;;19.71;73.91;99713.92;131354;1255;107320;-77
2023/07/31 06:11:56;;;;;;;3.50;2.30;;;;;;;19.78;73.62;99714.11;131366;1253;107549;-77
2023/07/31 06:15:02;;;;;;;3.60;2.30;;;;;;;19.89;74.02;99723.73;131227;1253;107502;-76
2023/07/31 06:18:08;;;;;;;4.00;2.10;;;;;;;20.02;73.49;99726.14;131281;1253;106512;-77
2023/07/31 06:21:14;;;;;;;3.00;2.30;;;;;;;20.12;73.54;99730.05;131413;1254;107620;-76
2023/07/31 06:24:20;;;;;;;3.50;2.30;;;;;;;20.29;73.41;99732.95;131384;1254;107481;-77
2023/07/31 06:27:26;;;;;;;2.50;2.10;;;;;;;20.46;73.30;99731.92;131321;1252;105794;-76
2023/07/31 06:30:31;;;;;;;2.90;2.30;;;;;;;20.62;73.07;99734.80;131370;1253;107516;-77
2023/07/31 06:33:37;;;;;;;3.70;2.30;;;;;;;20.59;71.87;99736.23;131549;1248;107580;-77
2023/07/31 06:36:42;;;;;;;2.60;2.10;;;;;;;20.53;71.79;99738.08;131287;1261;107537;-77
2023/07/31 06:39:48;;;;;;;3.90;2.30;;;;;;;20.42;71.52;99738.32;131324;1248;107542;-78
2023/07/31 06:42:53;;;;;;;2.90;2.30;;;;;;;20.38;71.81;99738.83;131433;1253;107525;-77
2023/07/31 06:46:00;;;;;;;4.00;2.20;;;;;;;20.42;72.24;99734.61;131306;1257;107355;-78
2023/07/31 06:49:06;;;;;;;3.70;2.10;;;;;;;20.67;72.39;99734.39;131286;1253;107457;-77
2023/07/31 06:52:12;;;;;;;2.50;2.00;;;;;;;20.90;71.36;99738.66;131300;1253;107669;-77
2023/07/31 06:55:21;;;;;;;2.90;2.20;;;;;;;21.04;70.80;99736.45;131283;1248;105639;-77
2023/07/31 06:58:27;;;;;;;2.80;2.10;;;;;;;21.18;70.96;99735.68;131332;1248;107344;-77
2023/07/31 07:01:32;;;;;;;2.30;2.10;;;;;;;21.37;71.17;99735.86;131236;1260;107495;-77
2023/07/31 07:04:38;;;;;;;4.00;2.30;;;;;;;21.55;70.89;99734.55;131308;1248;106467;-77
2023/07/31 07:07:44;;;;;;;4.20;2.00;;;;;;;21.74;70.58;99732.13;131320;1254;107464;-77
2023/07/31 07:10:50;;;;;;;3.40;2.10;;;;;;;21.87;70.00;99729.90;131306;1253;106729;-77
2023/07/31 07:13:55;;;;;;;3.10;1.90;;;;;;;21.94;69.77;99724.58;131343;1255;106090;-77
2023/07/31 07:17:01;;;;;;;3.70;2.10;;;;;;;22.06;68.96;99719.18;131318;1248;107420;-78
2023/07/31 07:20:09;;;;;;;2.50;1.90;;;;;;;21.91;66.04;99721.58;131350;1248;107491;-76
2023/07/31 07:23:14;;;;;;;2.80;1.80;;;;;;;21.88;68.80;99719.73;131465;1254;107205;-76
2023/07/31 07:26:20;;;;;;;2.10;1.90;;;;;;;22.05;68.86;99712.55;131277;1254;107553;-76
2023/07/31 07:29:26;;;;;;;2.70;1.80;;;;;;;22.20;68.27;99709.85;131249;1254;107543;-77
2023/07/31 07:32:32;;;;;;;3.80;1.80;;;;;;;22.35;68.18;99712.17;131336;1257;107354;-77
2023/07/31 07:35:37;;;;;;;4.20;2.10;;;;;;;22.46;66.72;99712.05;131240;1253;107531;-77
2023/07/31 07:38:43;;;;;;;3.50;1.90;;;;;;;22.54;66.86;99712.50;131306;1254;107557;-77
2023/07/31 07:41:49;;;;;;;3.30;2.10;;;;;;;22.66;66.46;99714.39;131263;1254;107473;-77
2023/07/31 07:44:54;;;;;;;2.90;2.20;;;;;;;22.71;65.41;99715.02;131266;1253;107574;-78
2023/07/31 07:48:00;;;;;;;2.70;1.50;;;;;;;22.77;65.37;99711.20;131287;1253;107388;-76
2023/07/31 07:51:05;;;;;;;4.00;1.80;;;;;;;22.85;64.17;99716.66;131216;1253;107560;-77
2023/07/31 07:54:11;;;;;;;3.00;1.90;;;;;;;22.86;64.20;99716.36;131235;1248;107216;-76
2023/07/31 07:57:16;;;;;;;2.10;1.70;;;;;;;22.93;64.00;99717.34;131241;1248;107509;-76
2023/07/31 08:00:22;;;;;;;2.50;1.80;;;;;;;23.02;63.71;99718.91;131207;1253;107531;-76
2023/07/31 08:03:27;;;;;;;2.90;1.70;;;;;;;22.98;60.97;99714.86;131255;1248;106609;-77
2023/07/31 08:06:33;;;;;;;2.50;1.80;;;;;;;22.99;63.13;99714.16;131312;1253;107635;-77
2023/07/31 08:09:38;;;;;;;4.10;2.00;;;;;;;23.04;61.58;99717.32;131210;1248;108348;-78
2023/07/31 08:12:44;;;;;;;3.40;1.60;;;;;;;23.03;59.51;99719.09;131352;1254;105969;-79
2023/07/31 08:15:49;;;;;;;3.00;1.80;;;;;;;22.84;58.50;99716.27;131354;1248;107251;-80
2023/07/31 08:18:55;;;;;;;3.30;1.80;;;;;;;22.84;60.59;99716.16;131232;1248;107402;-76
2023/07/31 08:22:00;;;;;;;2.80;1.80;;;;;;;22.93;59.81;99720.64;131300;1254;106495;-78
2023/07/31 08:25:08;;;;;;;3.20;1.70;;;;;;;23.09;60.05;99711.84;131285;1253;107521;-78
2023/07/31 08:28:13;;;;;;;2.00;1.80;;;;;;;23.28;60.42;99715.34;131306;1262;107374;-79
2023/07/31 08:31:19;;;;;;;2.50;1.70;;;;;;;23.37;60.21;99721.35;131053;1254;186757;-76
2023/07/31 08:34:25;;;;;;;2.90;1.90;;;;;;;23.45;59.47;99722.92;131456;1253;107615;-77
2023/07/31 08:37:30;;;;;;;2.80;1.90;;;;;;;23.49;58.65;99726.69;131411;1248;107324;-77
2023/07/31 08:40:38;;;;;;;4.60;1.60;;;;;;;23.63;59.57;99734.66;131289;1248;107297;-77
2023/07/31 08:43:45;;;;;;;2.90;1.70;;;;;;;23.63;55.52;99737.66;131517;1254;107427;-76
2023/07/31 08:46:52;;;;;;;2.30;1.60;;;;;;;23.59;57.71;99731.55;131307;1248;107536;-77
2023/07/31 08:49:58;;;;;;;3.00;1.60;;;;;;;23.72;58.15;99730.54;131360;1254;107527;-76
2023/07/31 08:53:04;;;;;;;2.20;1.60;;;;;;;23.86;57.70;99728.13;131219;1253;107443;-77
2023/07/31 08:56:12;;;;;;;2.00;1.50;;;;;;;23.94;56.63;99717.54;131334;1248;107463;-77
2023/07/31 08:59:21;;;;;;;3.40;1.60;;;;;;;23.88;54.11;99718.34;131275;1253;107607;-77
2023/07/31 09:02:35;;;;;;;2.90;1.50;;;;;;;23.63;55.08;99719.08;131342;1262;107258;-77
2023/07/31 09:05:45;;;;;;;3.10;1.50;;;;;;;23.74;56.90;99718.46;131275;1248;107295;-77
2023/07/31 09:08:51;;;;;;;2.80;1.50;;;;;;;23.92;56.68;99715.06;131221;1248;107554;-78
2023/07/31 09:11:58;;;;;;;1.40;1.20;;;;;;;24.01;55.62;99713.58;131276;1254;108920;-77
2023/07/31 09:15:09;;;;;;;2.10;1.30;;;;;;;23.97;54.74;99716.26;131334;1253;105428;-78
2023/07/31 09:18:18;;;;;;;2.20;1.30;;;;;;;23.96;55.09;99716.42;131297;1257;107099;-77
2023/07/31 09:21:25;;;;;;;5.30;1.30;;;;;;;23.91;54.56;99718.27;131324;1254;107345;-77
2023/07/31 09:24:33;;;;;;;2.70;1.30;;;;;;;23.90;54.63;99722.45;131258;1254;107363;-77
2023/07/31 09:27:50;;;;;;;1.80;1.30;;;;;;;23.88;53.65;99716.81;131266;1248;108349;-77
2023/07/31 09:30:55;;;;;;;3.00;1.40;;;;;;;23.72;51.86;99717.73;131275;1248;107562;-77
2023/07/31 09:34:01;;;;;;;1.60;1.30;;;;;;;23.67;54.12;99714.51;131246;1248;107454;-77
2023/07/31 09:37:07;;;;;;;1.80;1.20;;;;;;;23.91;54.56;99713.14;131297;1248;107428;-77
2023/07/31 09:40:27;;;;;;;2.00;1.50;;;;;;;24.17;54.78;99712.23;131260;1253;106724;-79
2023/07/31 09:43:33;;;;;;;2.40;1.10;;;;;;;24.40;53.69;99715.36;131294;1248;107284;-79
2023/07/31 09:46:40;;;;;;;2.50;1.30;;;;;;;24.53;53.08;99715.29;131289;1254;107988;-79
2023/07/31 09:49:49;;;;;;;1.80;1.40;;;;;;;24.64;53.08;99712.39;131442;1248;107379;-77
2023/07/31 09:52:54;;;;;;;1.70;1.00;;;;;;;24.78;52.65;99707.60;131247;1248;107454;-76
2023/07/31 09:56:03;;;;;;;1.40;1.00;;;;;;;24.87;51.95;99711.94;131286;1248;107497;-79
2023/07/31 09:59:11;;;;;;;2.60;1.30;;;;;;;24.90;51.06;99712.33;131422;1248;107145;-77
2023/07/31 10:02:22;;;;;;;2.40;1.20;;;;;;;24.95;51.86;99710.13;131423;1248;107721;-77
2023/07/31 10:05:35;;;;;;;3.80;1.30;;;;;;;24.92;49.62;99709.57;131259;1261;107249;-76
2023/07/31 10:08:42;;;;;;;3.20;1.20;;;;;;;24.83;50.64;99711.45;131342;1253;107508;-77
2023/07/31 10:11:55;;;;;;;2.20;1.10;;;;;;;24.90;49.76;99712.01;131263;1248;106516;-77
2023/07/31 10:15:02;;;;;;;1.80;1.10;;;;;;;24.94;50.32;99704.73;131590;1261;107081;-77
2023/07/31 10:18:09;;;;;;;1.60;1.10;;;;;;;25.07;49.84;99711.70;131407;1253;107504;-76
2023/07/31 10:21:15;;;;;;;1.90;1.20;;;;;;;25.17;49.30;99707.67;131362;1254;107513;-77
2023/07/31 10:24:22;;;;;;;2.70;1.40;;;;;;;25.19;49.79;99703.16;131335;1254;107498;-77
2023/07/31 10:27:28;;;;;;;2.80;1.50;;;;;;;25.25;49.65;99707.15;131325;1248;105844;-77
2023/07/31 10:30:38;;;;;;;2.30;1.40;;;;;;;25.29;49.54;99701.66;131389;1253;107494;-77
2023/07/31 10:33:44;;;;;;;2.70;1.20;;;;;;;25.38;48.69;99702.52;131327;1257;107335;-78
2023/07/31 10:36:50;;;;;;;1.90;1.20;;;;;;;25.38;48.01;99700.73;131172;1248;107498;-78
2023/07/31 10:40:01;;;;;;;2.00;1.20;;;;;;;25.18;45.70;99701.58;131319;1254;107347;-77
2023/07/31 10:43:08;;;;;;;2.70;1.00;;;;;;;24.93;46.97;99700.95;131343;1248;106601;-77
2023/07/31 10:46:15;;;;;;;3.60;1.20;;;;;;;24.88;47.09;99698.45;131277;1248;106884;-78
2023/07/31 10:49:26;;;;;;;2.20;1.40;;;;;;;24.97;47.24;99697.71;131554;1254;106795;-77
2023/07/31 10:52:37;;;;;;;3.40;1.10;;;;;;;24.95;46.96;99695.40;131606;1249;107290;-77
2023/07/31 10:55:45;;;;;;;2.10;1.20;;;;;;;25.02;47.01;99696.64;131321;1252;107677;-78
2023/07/31 10:59:03;;;;;;;2.40;1.20;;;;;;;24.97;47.46;99698.09;131194;1262;108747;-77
2023/07/31 11:02:29;;;;;;;3.20;1.40;;;;;;;24.97;47.73;99693.55;131353;1255;109421;-77
2023/07/31 11:05:46;;;;;;;3.10;1.80;;;;;;;25.17;47.59;99691.08;131363;1248;107428;-77
2023/07/31 11:08:52;;;;;;;2.50;1.30;;;;;;;25.34;47.90;99687.91;131304;1248;107503;-78
2023/07/31 11:11:58;;;;;;;2.60;1.30;;;;;;;25.45;47.06;99685.91;131415;1254;107330;-77
2023/07/31 11:15:04;;;;;;;2.90;1.20;;;;;;;25.37;46.93;99684.50;131322;1248;107520;-77
2023/07/31 11:18:11;;;;;;;2.00;1.10;;;;;;;25.56;47.66;99687.81;131105;1253;107396;-78
2023/07/31 11:21:19;;;;;;;2.70;1.50;;;;;;;25.74;47.50;99685.23;131350;1254;107511;-78
2023/07/31 11:24:25;;;;;;;2.70;1.20;;;;;;;25.81;47.06;99676.02;131145;1253;109013;-78
2023/07/31 11:27:32;;;;;;;3.60;1.20;;;;;;;25.90;46.53;99684.23;131299;1248;107236;-78
2023/07/31 11:30:38;;;;;;;2.40;1.10;;;;;;;25.96;46.89;99682.15;131460;1257;107212;-78
2023/07/31 11:33:43;;;;;;;2.90;1.20;;;;;;;25.96;46.16;99682.36;131269;1252;107548;-79
2023/07/31 11:36:57;;;;;;;2.50;1.40;;;;;;;25.88;46.14;99682.65;131222;1248;107566;-79
2023/07/31 11:40:03;;;;;;;2.30;1.60;;;;;;;25.79;45.91;99681.23;131409;1247;107719;-78
2023/07/31 11:43:09;;;;;;;2.90;1.30;;;;;;;25.69;45.93;99683.98;131413;1253;107462;-76
2023/07/31 11:46:16;;;;;;;3.90;1.40;;;;;;;25.64;46.34;99679.55;131371;1248;107443;-79
2023/07/31 11:49:21;;;;;;;2.50;1.50;;;;;;;25.69;46.63;99678.96;131346;1248;108613;-79
2023/07/31 11:52:28;;;;;;;2.10;1.30;;;;;;;25.73;46.43;99671.61;131294;1248;107479;-78
2023/07/31 11:55:34;;;;;;;2.30;1.30;;;;;;;25.71;46.02;99669.96;131519;1248;107359;-78
2023/07/31 11:58:41;;;;;;;4.60;1.40;;;;;;;25.78;46.45;99666.65;131315;1248;107547;-78
2023/07/31 12:01:50;;;;;;;3.20;1.40;;;;;;;25.90;46.34;99661.49;131272;1252;107535;-78
2023/07/31 12:04:55;;;;;;;2.70;1.20;;;;;;;26.10;46.67;99655.27;131208;1248;107666;-78
2023/07/31 12:08:12;;;;;;;3.90;1.40;;;;;;;26.24;46.31;99652.02;131337;1250;107487;-78
2023/07/31 12:11:20;;;;;;;2.80;1.30;;;;;;;26.35;45.94;99651.38;131323;1252;107522;-81
2023/07/31 12:14:28;;;;;;;6.70;1.60;;;;;;;26.38;45.40;99650.12;131463;1253;107441;-80
2023/07/31 12:17:34;;;;;;;2.20;1.20;;;;;;;26.27;44.87;99648.48;131521;1252;107258;-80
2023/07/31 12:20:43;;;;;;;3.50;1.30;;;;;;;26.21;44.18;99647.04;131421;1251;107517;-79
2023/07/31 12:23:53;;;;;;;3.00;1.50;;;;;;;26.27;44.94;99640.05;131459;1252;107517;-79
2023/07/31 12:26:59;;;;;;;2.00;1.20;;;;;;;26.45;44.31;99633.70;131571;1251;107442;-79
2023/07/31 12:30:05;;;;;;;2.70;1.50;;;;;;;26.51;44.26;99628.61;131429;1251;107257;-77
2023/07/31 12:33:16;;;;;;;3.80;2.00;;;;;;;26.62;44.34;99624.92;131210;1253;109219;-79
2023/07/31 12:36:23;;;;;;;1.40;1.10;;;;;;;26.70;43.52;99624.91;131486;1258;107213;-80
2023/07/31 12:39:29;;;;;;;1.90;1.30;;;;;;;26.65;43.55;99617.04;131516;1251;107526;-79
2023/07/31 12:42:34;;;;;;;1.90;1.10;;;;;;;26.60;42.37;99613.70;131587;1251;107547;-79
2023/07/31 12:45:40;;;;;;;2.20;1.20;;;;;;;26.57;43.29;99609.64;131448;1248;107500;-78
2023/07/31 12:48:46;;;;;;;3.10;1.40;;;;;;;26.72;43.57;99601.75;131433;1248;107277;-79
2023/07/31 12:51:51;;;;;;;3.30;1.20;;;;;;;26.71;42.54;99599.73;131421;1251;107401;-79
2023/07/31 12:54:57;;;;;;;2.80;1.20;;;;;;;26.64;42.71;99595.69;131504;1248;107421;-80
2023/07/31 12:58:02;;;;;;;2.50;1.30;;;;;;;26.57;42.23;99596.39;131631;1251;107369;-79
2023/07/31 13:01:08;;;;;;;1.40;1.00;;;;;;;26.51;42.57;99592.61;131508;1247;107466;-78
2023/07/31 13:04:15;;;;;;;3.40;1.50;;;;;;;26.36;42.86;99589.23;131677;1251;107445;-80
2023/07/31 13:07:20;;;;;;;2.00;1.20;;;;;;;26.09;42.93;99587.91;131567;1253;108032;-79
2023/07/31 13:10:26;;;;;;;2.00;1.30;;;;;;;25.85;43.21;99586.11;131550;1248;107460;-79
2023/07/31 13:13:32;;;;;;;3.40;1.20;;;;;;;25.62;43.20;99586.64;131465;1248;107451;-78
2023/07/31 13:16:37;;;;;;;1.90;1.20;;;;;;;25.45;43.29;99586.48;131498;1251;107556;-78
2023/07/31 13:19:43;;;;;;;1.70;1.20;;;;;;;25.38;43.59;99580.02;131467;1248;107586;-78
2023/07/31 13:22:48;;;;;;;1.90;1.20;;;;;;;25.41;43.45;99580.84;131449;1247;107490;-78
2023/07/31 13:25:54;;;;;;;2.90;1.40;;;;;;;25.47;43.77;99573.49;131473;1251;108099;-78
2023/07/31 13:28:59;;;;;;;2.10;1.30;;;;;;;25.55;43.77;99567.93;131616;1251;107484;-78
2023/07/31 13:32:06;;;;;;;2.70;1.40;;;;;;;25.75;43.73;99563.17;131460;1247;107241;-78
2023/07/31 13:35:12;;;;;;;3.20;1.40;;;;;;;26.07;43.88;99556.80;131480;1251;107584;-78
2023/07/31 13:38:17;;;;;;;3.70;1.40;;;;;;;26.29;43.53;99552.42;131671;1251;107536;-77
2023/07/31 13:41:23;;;;;;;3.60;1.40;;;;;;;26.33;43.30;99551.48;131595;1251;107425;-78
2023/07/31 13:44:29;;;;;;;1.70;1.10;;;;;;;26.28;43.36;99548.55;131475;1248;107874;-78
2023/07/31 13:47:37;;;;;;;3.50;1.10;;;;;;;26.28;43.50;99549.08;131428;1251;107587;-79
2023/07/31 13:50:42;;;;;;;1.50;1.10;;;;;;;26.15;43.34;99546.09;131596;1248;107388;-79
2023/07/31 13:53:48;;;;;;;2.10;1.10;;;;;;;25.97;43.58;99544.48;131503;1252;107260;-78
2023/07/31 13:56:54;;;;;;;2.40;1.30;;;;;;;25.82;43.65;99538.70;131562;1251;107596;-79
2023/07/31 14:00:10;;;;;;;1.80;1.30;;;;;;;25.66;43.42;99536.98;131449;1253;107158;-78
2023/07/31 14:03:15;;;;;;;2.10;1.20;;;;;;;25.57;43.71;99535.38;131519;1251;107507;-78
2023/07/31 14:06:22;;;;;;;1.70;1.20;;;;;;;25.61;43.79;99533.20;131493;1251;105816;-79
2023/07/31 14:09:28;;;;;;;2.70;1.30;;;;;;;25.80;43.58;99528.64;131380;1253;107461;-79
2023/07/31 14:12:34;;;;;;;1.70;1.10;;;;;;;26.14;43.80;99518.89;131477;1251;107368;-79
2023/07/31 14:15:40;;;;;;;2.00;1.20;;;;;;;26.46;43.58;99518.31;131535;1251;107568;-79
2023/07/31 14:18:46;;;;;;;2.00;1.10;;;;;;;26.51;42.60;99521.20;131481;1247;107236;-80